createdAt,value
2022-10-06T00:02:07.141Z,100.00
2022-10-06T00:05:09.976Z,100.00
2022-10-06T00:08:12.439Z,100.00
2022-10-06T00:11:17.251Z,100.00
2022-10-06T00:14:19.716Z,100.00
2022-10-06T00:17:22.484Z,100.00
2022-10-06T00:20:29.242Z,100.00
2022-10-06T00:23:32.520Z,100.00
2022-10-06T00:26:35.034Z,100.00
2022-10-06T00:29:37.949Z,100.00
2022-10-06T00:32:40.561Z,100.00
2022-10-06T00:35:44.788Z,100.00
2022-10-06T00:38:47.636Z,100.00
2022-10-06T00:41:50.296Z,100.00
2022-10-06T00:44:53.638Z,100.00
2022-10-06T00:48:00.780Z,100.00
2022-10-06T00:51:03.592Z,100.00
2022-10-06T00:54:07.350Z,100.00
2022-10-06T00:57:10.943Z,100.00
2022-10-06T01:00:14.693Z,100.00
2022-10-06T01:03:52.507Z,100.00
2022-10-06T01:06:59.015Z,100.00
2022-10-06T01:10:01.665Z,100.00
2022-10-06T01:13:07.649Z,100.00
2022-10-06T01:16:16.938Z,100.00
2022-10-06T01:19:37.270Z,100.00
2022-10-06T01:22:43.541Z,100.00
2022-10-06T01:25:46.793Z,100.00
2022-10-06T01:28:50.104Z,100.00
2022-10-06T01:31:55.450Z,100.00
2022-10-06T01:34:58.126Z,100.00
2022-10-06T01:38:01.082Z,100.00
2022-10-06T01:41:04.138Z,100.00
2022-10-06T01:44:06.915Z,100.00
2022-10-06T01:47:09.600Z,100.00
2022-10-06T01:50:13.090Z,100.00
2022-10-06T01:53:16.085Z,100.00
2022-10-06T01:56:21.039Z,100.00
2022-10-06T01:59:24.594Z,100.00
2022-10-06T02:02:30.811Z,100.00
2022-10-06T02:05:35.447Z,100.00
2022-10-06T02:08:38.680Z,100.00
2022-10-06T02:11:41.524Z,100.00
2022-10-06T02:14:44.079Z,100.00
2022-10-06T02:17:49.876Z,100.00
2022-10-06T02:20:52.518Z,100.00
2022-10-06T02:23:55.264Z,100.00
2022-10-06T02:26:58.899Z,100.00
2022-10-06T02:30:01.819Z,100.00
2022-10-06T02:33:07.669Z,100.00
2022-10-06T02:36:14.773Z,100.00
2022-10-06T02:39:17.301Z,100.00
2022-10-06T02:42:20.145Z,100.00
2022-10-06T02:45:25.611Z,100.00
2022-10-06T02:48:29.794Z,100.00
2022-10-06T02:51:33.131Z,100.00
2022-10-06T02:54:36.744Z,100.00
2022-10-06T02:57:39.639Z,100.00
2022-10-06T03:00:42.645Z,100.00
2022-10-06T03:03:49.382Z,100.00
2022-10-06T03:06:53.399Z,100.00
2022-10-06T03:09:56.576Z,100.00
2022-10-06T03:12:59.805Z,100.00
2022-10-06T03:16:03.836Z,100.00
2022-10-06T03:19:08.943Z,100.00
2022-10-06T03:22:11.693Z,100.00
2022-10-06T03:25:15.548Z,100.00
2022-10-06T03:28:18.244Z,100.00
2022-10-06T03:31:21.549Z,100.00
2022-10-06T03:34:24.910Z,100.00
2022-10-06T03:37:28.720Z,100.00
2022-10-06T03:40:33.983Z,100.00
2022-10-06T03:43:38.051Z,100.00
2022-10-06T03:46:41.050Z,100.00
2022-10-06T03:49:43.896Z,100.00
2022-10-06T03:52:51.264Z,100.00
2022-10-06T03:56:03.902Z,100.00
2022-10-06T03:59:08.770Z,100.00
2022-10-06T04:02:12.083Z,100.00
2022-10-06T04:05:14.878Z,100.00
2022-10-06T04:08:17.780Z,100.00
2022-10-06T04:11:29.737Z,100.00
2022-10-06T04:14:32.344Z,100.00
2022-10-06T04:17:35.636Z,100.00
2022-10-06T04:20:38.656Z,100.00
2022-10-06T04:24:01.020Z,100.00
2022-10-06T04:27:23.042Z,100.00
2022-10-06T04:30:26.783Z,100.00
2022-10-06T04:33:31.183Z,100.00
2022-10-06T04:36:36.584Z,100.00
2022-10-06T04:39:40.222Z,100.00
2022-10-06T04:42:43.325Z,100.00
2022-10-06T04:45:46.137Z,100.00
2022-10-06T04:48:54.088Z,100.00
2022-10-06T04:51:57.518Z,100.00
2022-10-06T04:55:00.798Z,100.00
2022-10-06T04:58:03.759Z,100.00
2022-10-06T05:01:18.128Z,100.00
2022-10-06T05:04:21.496Z,100.00
2022-10-06T05:07:24.324Z,100.00
2022-10-06T05:10:28.506Z,100.00
2022-10-06T05:13:31.909Z,100.00
2022-10-06T05:16:38.006Z,100.00
2022-10-06T05:19:42.620Z,100.00
2022-10-06T05:22:45.139Z,100.00
2022-10-06T05:25:52.912Z,100.00
2022-10-06T05:28:56.096Z,100.00
2022-10-06T05:31:59.719Z,100.00
2022-10-06T05:35:03.443Z,100.00
2022-10-06T05:38:06.352Z,100.00
2022-10-06T05:41:21.039Z,100.00
2022-10-06T05:44:24.241Z,100.00
2022-10-06T05:47:26.975Z,100.00
2022-10-06T05:50:30.485Z,100.00
2022-10-06T05:53:35.738Z,100.00
2022-10-06T05:56:39.502Z,100.00
2022-10-06T05:59:43.212Z,100.00
2022-10-06T06:02:46.830Z,100.00
2022-10-06T06:05:49.924Z,100.00
2022-10-06T06:09:20.606Z,100.00
2022-10-06T06:12:23.880Z,100.00
2022-10-06T06:15:45.981Z,100.00
2022-10-06T06:18:48.858Z,100.00
2022-10-06T06:21:52.080Z,100.00
2022-10-06T06:24:54.955Z,100.00
2022-10-06T06:28:00.584Z,100.00
2022-10-06T06:31:09.751Z,100.00
2022-10-06T06:34:12.310Z,100.00
2022-10-06T06:37:15.720Z,100.00
2022-10-06T06:40:18.572Z,100.00
2022-10-06T06:43:21.646Z,100.00
2022-10-06T06:46:32.291Z,100.00
2022-10-06T06:49:35.671Z,100.00
2022-10-06T06:52:38.584Z,100.00
2022-10-06T06:55:52.519Z,100.00
2022-10-06T06:58:55.652Z,100.00
2022-10-06T07:01:59.039Z,100.00
2022-10-06T07:05:02.103Z,100.00
2022-10-06T07:08:10.288Z,100.00
2022-10-06T07:11:40.783Z,100.00
2022-10-06T07:15:03.884Z,100.00
2022-10-06T07:18:28.614Z,100.00
2022-10-06T07:21:50.127Z,100.00
2022-10-06T07:25:07.954Z,100.00
2022-10-06T07:28:12.331Z,100.00
2022-10-06T07:31:17.687Z,100.00
2022-10-06T07:34:22.614Z,100.00
2022-10-06T07:37:25.666Z,100.00
2022-10-06T07:40:28.723Z,100.00
2022-10-06T07:43:31.452Z,100.00
2022-10-06T07:46:35.133Z,100.00
2022-10-06T07:49:38.199Z,100.00
2022-10-06T07:52:41.072Z,100.00
2022-10-06T07:55:46.681Z,100.00
2022-10-06T07:58:51.384Z,100.00
2022-10-06T08:01:54.929Z,100.00
2022-10-06T08:04:57.808Z,100.00
2022-10-06T08:08:00.249Z,100.00
2022-10-06T08:11:04.593Z,100.00
2022-10-06T08:14:07.086Z,99.05
2022-10-06T08:17:09.790Z,97.52
2022-10-06T08:20:13.608Z,97.71
2022-10-06T08:23:16.628Z,95.80
2022-10-06T08:26:21.594Z,94.86
2022-10-06T08:29:24.346Z,92.39
2022-10-06T08:32:26.824Z,89.91
2022-10-06T08:35:32.876Z,89.46
2022-10-06T08:38:38.536Z,89.40
2022-10-06T08:41:48.530Z,86.88
2022-10-06T08:44:58.260Z,86.64
2022-10-06T08:48:09.810Z,84.46
2022-10-06T08:51:25.427Z,85.92
2022-10-06T08:55:01.482Z,84.78
2022-10-06T08:58:23.081Z,83.66
2022-10-06T09:01:29.732Z,82.00
2022-10-06T09:04:34.207Z,80.40
2022-10-06T09:07:56.269Z,78.89
2022-10-06T09:11:40.289Z,79.10
2022-10-06T09:14:52.896Z,79.49
2022-10-06T09:18:56.132Z,79.85
2022-10-06T09:21:59.970Z,78.64
2022-10-06T09:25:22.737Z,76.77
2022-10-06T09:28:25.641Z,74.54
2022-10-06T09:31:31.910Z,75.74
2022-10-06T09:34:42.812Z,74.18
2022-10-06T09:38:04.468Z,74.54
2022-10-06T09:41:13.322Z,73.60
2022-10-06T09:44:29.219Z,73.38
2022-10-06T09:47:40.763Z,71.41
2022-10-06T09:50:43.290Z,70.07
2022-10-06T09:54:11.087Z,68.62
2022-10-06T09:57:23.415Z,66.49
2022-10-06T10:00:35.058Z,66.07
2022-10-06T10:07:24.306Z,67.46
2022-10-06T10:10:27.209Z,67.58
2022-10-06T10:13:42.609Z,68.62
2022-10-06T10:16:50.940Z,68.89
2022-10-06T10:19:55.998Z,68.17
2022-10-06T10:23:02.734Z,68.46
2022-10-06T10:26:14.584Z,67.86
2022-10-06T10:29:33.440Z,68.22
2022-10-06T10:32:41.758Z,68.51
2022-10-06T10:35:51.099Z,67.06
2022-10-06T10:38:54.700Z,66.59
2022-10-06T10:42:02.931Z,64.94
2022-10-06T10:45:37.648Z,64.67
2022-10-06T10:48:43.911Z,63.62
2022-10-06T10:52:07.992Z,63.23
2022-10-06T10:55:27.579Z,62.04
2022-10-06T10:58:36.861Z,62.86
2022-10-06T11:01:48.040Z,62.23
2022-10-06T11:04:54.430Z,63.43
2022-10-06T11:08:11.868Z,62.39
2022-10-06T11:11:29.676Z,62.03
2022-10-06T11:15:00.548Z,61.76
2022-10-06T11:18:22.350Z,62.58
2022-10-06T11:21:36.459Z,61.63
2022-10-06T11:24:45.265Z,63.03
2022-10-06T11:28:22.437Z,62.54
2022-10-06T11:31:43.613Z,61.93
2022-10-06T11:34:49.904Z,62.85
2022-10-06T11:38:04.506Z,62.66
2022-10-06T11:41:09.803Z,62.35
2022-10-06T11:44:37.645Z,63.33
2022-10-06T11:47:47.221Z,64.02
2022-10-06T11:50:53.088Z,63.96
2022-10-06T11:53:56.085Z,63.96
2022-10-06T11:56:58.578Z,63.19
2022-10-06T12:00:04.298Z,63.10
2022-10-06T12:03:32.595Z,61.22
2022-10-06T12:06:44.799Z,61.58
2022-10-06T12:09:52.460Z,60.38
2022-10-06T12:13:21.262Z,60.03
2022-10-06T12:20:25.923Z,59.21
2022-10-06T12:23:47.158Z,59.40
2022-10-06T12:27:08.146Z,60.10
2022-10-06T12:30:28.812Z,60.06
2022-10-06T12:33:38.370Z,60.63
2022-10-06T12:36:44.859Z,59.11
2022-10-06T12:39:49.964Z,58.71
2022-10-06T12:42:54.246Z,59.16
2022-10-06T12:46:18.289Z,58.51
2022-10-06T12:49:36.954Z,59.54
2022-10-06T12:52:51.542Z,59.30
2022-10-06T12:56:00.895Z,59.55
2022-10-06T12:59:38.470Z,59.27
2022-10-06T13:02:44.193Z,59.47
2022-10-06T13:05:57.198Z,58.71
2022-10-06T13:09:06.387Z,58.12
2022-10-06T13:12:20.015Z,59.81
2022-10-06T13:15:29.554Z,58.59
2022-10-06T13:18:32.847Z,59.82
2022-10-06T13:21:35.548Z,60.20
2022-10-06T13:24:39.010Z,60.58
2022-10-06T13:27:48.873Z,60.56
2022-10-06T13:30:59.826Z,59.85
2022-10-06T13:34:14.482Z,59.16
2022-10-06T13:37:17.598Z,59.22
2022-10-06T13:40:44.013Z,60.18
2022-10-06T13:43:54.627Z,61.17
2022-10-06T13:47:14.549Z,60.88
2022-10-06T13:50:19.966Z,61.33
2022-10-06T13:53:32.421Z,60.58
2022-10-06T13:56:38.751Z,59.66
2022-10-06T13:59:41.319Z,59.15
2022-10-06T14:02:46.863Z,59.06
2022-10-06T14:05:51.824Z,59.24
2022-10-06T14:08:57.815Z,59.86
2022-10-06T14:12:05.185Z,60.69
2022-10-06T14:15:18.799Z,59.55
2022-10-06T14:18:36.411Z,61.18
2022-10-06T14:21:41.758Z,62.92
2022-10-06T14:24:51.442Z,62.33
2022-10-06T14:27:55.192Z,64.53
2022-10-06T14:30:58.866Z,65.23
2022-10-06T14:34:02.558Z,65.64
2022-10-06T14:37:05.364Z,67.82
2022-10-06T14:40:12.079Z,70.53
2022-10-06T14:43:15.112Z,69.79
2022-10-06T14:46:17.589Z,71.79
2022-10-06T14:49:21.475Z,75.97
2022-10-06T14:52:23.961Z,74.46
2022-10-06T14:55:29.558Z,73.58
2022-10-06T14:58:33.070Z,74.41
2022-10-06T15:01:39.946Z,74.34
2022-10-06T15:04:42.460Z,75.51
2022-10-06T15:08:03.907Z,74.92
2022-10-06T15:11:06.438Z,75.00
2022-10-06T15:14:09.903Z,75.20
2022-10-06T15:17:12.443Z,75.97
2022-10-06T15:20:17.317Z,73.55
2022-10-06T15:23:19.937Z,74.99
2022-10-06T15:26:41.514Z,75.20
2022-10-06T15:29:44.406Z,75.29
2022-10-06T15:32:48.768Z,76.82
2022-10-06T15:36:16.421Z,77.27
2022-10-06T15:39:23.799Z,79.08
2022-10-06T15:42:26.221Z,80.52
2022-10-06T15:45:28.939Z,81.19
2022-10-06T15:48:31.469Z,82.10
2022-10-06T15:51:38.365Z,83.54
2022-10-06T15:54:41.539Z,84.44
2022-10-06T15:57:44.457Z,85.06
2022-10-06T16:00:48.962Z,85.54
2022-10-06T16:03:53.159Z,86.17
2022-10-06T16:06:55.885Z,87.62
2022-10-06T16:09:58.854Z,88.14
2022-10-06T16:13:01.291Z,88.54
2022-10-06T16:16:04.151Z,89.13
2022-10-06T16:19:06.978Z,90.41
2022-10-06T16:22:12.311Z,90.39
2022-10-06T16:25:14.836Z,91.00
2022-10-06T16:28:17.621Z,91.55
2022-10-06T16:31:20.985Z,92.32
2022-10-06T16:34:25.359Z,92.90
2022-10-06T16:37:27.925Z,93.30
2022-10-06T16:40:30.946Z,94.10
2022-10-06T16:43:34.980Z,95.42
2022-10-06T16:46:37.964Z,96.05
2022-10-06T16:49:40.404Z,95.10
2022-10-06T16:52:43.102Z,95.01
2022-10-06T16:55:45.528Z,94.39
2022-10-06T16:58:56.070Z,94.48
2022-10-06T17:01:58.507Z,94.89
2022-10-06T17:05:01.515Z,95.03
2022-10-06T17:08:03.987Z,95.35
2022-10-06T17:11:15.969Z,95.61
2022-10-06T17:14:19.809Z,96.01
2022-10-06T17:17:22.548Z,96.55
2022-10-06T17:20:25.600Z,96.99
2022-10-06T17:23:29.195Z,97.36
2022-10-06T17:26:34.255Z,97.11
2022-10-06T17:29:37.731Z,97.74
2022-10-06T17:32:41.261Z,98.53
2022-10-06T17:35:44.411Z,98.33
2022-10-06T17:38:49.000Z,99.20
2022-10-06T17:41:53.442Z,100.00
2022-10-06T17:44:55.912Z,100.00
2022-10-06T17:47:58.699Z,100.00
2022-10-06T17:51:01.411Z,100.00
2022-10-06T17:54:06.921Z,100.00
2022-10-06T17:57:10.082Z,100.00
2022-10-06T18:00:14.979Z,100.00
2022-10-06T18:03:18.416Z,100.00
2022-10-06T18:06:29.353Z,100.00
2022-10-06T18:09:32.174Z,100.00
2022-10-06T18:12:36.174Z,100.00
2022-10-06T18:15:40.050Z,100.00
2022-10-06T18:18:47.272Z,100.00
2022-10-06T18:21:50.028Z,100.00
2022-10-06T18:24:56.130Z,100.00
2022-10-06T18:28:01.939Z,100.00
2022-10-06T18:31:04.856Z,100.00
2022-10-06T18:37:31.981Z,100.00
2022-10-06T18:40:34.755Z,100.00
2022-10-06T18:43:37.898Z,100.00
2022-10-06T18:46:59.357Z,100.00
2022-10-06T18:50:02.106Z,100.00
2022-10-06T18:53:05.246Z,100.00
2022-10-06T18:56:07.890Z,100.00
2022-10-06T18:59:13.287Z,100.00
2022-10-06T19:02:16.899Z,100.00
2022-10-06T19:05:19.952Z,100.00
2022-10-06T19:08:22.465Z,100.00
2022-10-06T19:11:43.856Z,100.00
2022-10-06T19:14:47.823Z,100.00
2022-10-06T19:17:50.813Z,100.00
2022-10-06T19:20:53.599Z,100.00
2022-10-06T19:23:56.281Z,100.00
2022-10-06T19:26:59.503Z,100.00
2022-10-06T19:30:02.306Z,100.00
2022-10-06T19:33:05.204Z,100.00
2022-10-06T19:36:08.636Z,100.00
2022-10-06T19:39:12.729Z,100.00
2022-10-06T19:42:56.077Z,100.00
2022-10-06T19:45:58.605Z,100.00
2022-10-06T19:49:05.903Z,100.00
2022-10-06T19:52:10.600Z,100.00
2022-10-06T19:55:13.661Z,100.00
2022-10-06T19:58:16.520Z,100.00
2022-10-06T20:01:19.427Z,100.00
2022-10-06T20:04:24.121Z,100.00
2022-10-06T20:07:27.952Z,100.00
2022-10-06T20:10:34.740Z,100.00
2022-10-06T20:13:39.074Z,100.00
2022-10-06T20:16:43.754Z,100.00
2022-10-06T20:19:47.200Z,100.00
2022-10-06T20:22:49.996Z,100.00
2022-10-06T20:25:52.476Z,100.00
2022-10-06T20:28:55.246Z,100.00
2022-10-06T20:32:01.010Z,100.00
2022-10-06T20:35:04.777Z,100.00
2022-10-06T20:38:08.931Z,100.00
2022-10-06T20:41:15.953Z,100.00
2022-10-06T20:44:18.429Z,100.00
2022-10-06T20:47:21.208Z,100.00
2022-10-06T20:50:23.743Z,100.00
2022-10-06T20:53:32.264Z,100.00
2022-10-06T20:56:35.232Z,100.00
2022-10-06T20:59:37.949Z,100.00
2022-10-06T21:02:40.729Z,100.00
2022-10-06T21:05:50.820Z,100.00
2022-10-06T21:08:53.298Z,100.00
2022-10-06T21:11:57.410Z,100.00
2022-10-06T21:14:59.990Z,100.00
2022-10-06T21:18:05.563Z,100.00
2022-10-06T21:21:08.070Z,100.00
2022-10-06T21:24:10.958Z,100.00
2022-10-06T21:27:13.533Z,100.00
2022-10-06T21:30:16.319Z,100.00
2022-10-06T21:33:19.010Z,100.00
2022-10-06T21:36:24.134Z,100.00
2022-10-06T21:39:26.628Z,100.00
2022-10-06T21:42:29.343Z,100.00
2022-10-06T21:45:33.185Z,100.00
2022-10-06T21:48:35.993Z,100.00
2022-10-06T21:51:39.844Z,100.00
2022-10-06T21:54:42.541Z,100.00
2022-10-06T21:57:45.344Z,100.00
2022-10-06T22:00:48.961Z,100.00
2022-10-06T22:03:52.090Z,100.00
2022-10-06T22:06:54.584Z,100.00
2022-10-06T22:09:57.587Z,100.00
2022-10-06T22:13:00.103Z,100.00
2022-10-06T22:16:04.096Z,100.00
2022-10-06T22:19:09.189Z,100.00
2022-10-06T22:22:11.876Z,100.00
2022-10-06T22:25:14.349Z,100.00
2022-10-06T22:28:19.527Z,100.00
2022-10-06T22:31:26.020Z,100.00
2022-10-06T22:34:29.728Z,100.00
2022-10-06T22:37:32.199Z,100.00
2022-10-06T22:40:35.064Z,100.00
2022-10-06T22:43:38.224Z,100.00
2022-10-06T22:46:41.085Z,100.00
2022-10-06T22:49:43.882Z,100.00
2022-10-06T22:52:46.624Z,100.00
2022-10-06T22:55:49.601Z,100.00
2022-10-06T22:58:52.414Z,100.00
2022-10-06T23:01:55.151Z,100.00
2022-10-06T23:04:57.889Z,100.00
2022-10-06T23:08:00.779Z,100.00
2022-10-06T23:11:17.935Z,100.00
2022-10-06T23:14:20.539Z,100.00
2022-10-06T23:17:26.022Z,100.00
2022-10-06T23:20:28.777Z,100.00
2022-10-06T23:23:31.850Z,100.00
2022-10-06T23:26:34.380Z,100.00
2022-10-06T23:29:37.142Z,100.00
2022-10-06T23:32:40.735Z,100.00
2022-10-06T23:35:43.471Z,100.00
2022-10-06T23:38:47.099Z,100.00
2022-10-06T23:41:49.823Z,100.00
2022-10-06T23:44:53.337Z,100.00
2022-10-06T23:47:56.006Z,100.00
2022-10-06T23:51:01.136Z,100.00
2022-10-06T23:54:04.048Z,100.00
2022-10-06T23:57:06.486Z,100.00
